KEZS

Shawano Municipal Airport

Shawano, Wisconsin, USA
METAR KEZS 101515Z AUTO 24006KT 4SM BR OVC005 M06/M07 A3015 RMK AO2 T10571070
Observed Flight Rules
Dec-10 @ 15:15 UTC (13 minutes ago) Instrument Flight Rules
Wind Visibility Clouds Conditions
240° at 6 knots 4 miles
  • Overcast at 500' AGL
  • Mist
Temperatures Readings
Current -6°C / 21°F
Dewpoint -7°C / 19°F
Humidity 93%
Altimeter 30.15" Hg
Pressure 1021 hPa
Elevation 248
METAR KEZS 101515Z AUTO 24006KT 4SM BR OVC005 M06/M07 A3015 RMK AO2 T10571070
Observed Flight Rules
Dec-10 @ 15:15 UTC
(13 minutes ago)
IFR
Wind Visibility
240° at 6 knots 4 miles
Clouds
  • Overcast at 500' AGL
Conditions
  • Mist
Temperature Dewpoint
-6°C / 21°F -7°C / 19°F
Humidity Altimeter Pressure
93% 30.15" Hg 1021 hPa